logo
Rechercher aéroport 
image banner adimage banner adimage banner ad
image banner ad

SJFL - Fazenda Campo Formoso

Situé à Sandolandia, Brazil

ICAO - SJFL, IATA -

Données fournies par Airmate  

Information générale

Coordonnées: S12°33'42" W49°51'56"
Élévation : 1082 feet MSL.
Variation magnétique : -21.143850033° East
Voir autres Aéroports à Tocatins

Données opérationnelles

Special qualification required
Heure actuelle UTC:
Heure actuelle locale:
Météo à : - ( 0 km )
METAR: ZMCK 152130Z 10003MPS 9999 BKN033 14/13 Q1012 NOSIG RMK QFE644.2 92 MOP
Voir NOTAMs / SUP AIP / TFR affectant cet aéroport [VIEW]
Fréquences de communication: [VIEW]

Pistes:

Identifiant RWYQFULongueur (ft)Largeur (ft)SurfaceLDA (ft)
06262566GRAVEL
24262566GRAVEL

Coordonnées de l'aéroport

Adresse: Sandolandia Brazil

Vue satellite de SJFL